sensor_id;sensor_type;location;lat;lon;timestamp;temperature;humidity
63371;DHT22;72561;48.336;14.472;2023-08-31T00:00:26;26.10;61.00
63371;DHT22;72561;48.336;14.472;2023-08-31T00:03:48;26.10;61.00
63371;DHT22;72561;48.336;14.472;2023-08-31T00:07:09;26.10;61.00
63371;DHT22;72561;48.336;14.472;2023-08-31T00:10:30;26.10;61.00
63371;DHT22;72561;48.336;14.472;2023-08-31T00:13:52;26.10;61.00
63371;DHT22;72561;48.336;14.472;2023-08-31T00:17:13;26.10;61.00
63371;DHT22;72561;48.336;14.472;2023-08-31T00:20:35;26.10;61.10
63371;DHT22;72561;48.336;14.472;2023-08-31T00:23:56;26.10;61.10
63371;DHT22;72561;48.336;14.472;2023-08-31T00:27:17;26.10;61.10
63371;DHT22;72561;48.336;14.472;2023-08-31T00:32:27;26.10;60.50
63371;DHT22;72561;48.336;14.472;2023-08-31T00:37:20;26.10;60.50
63371;DHT22;72561;48.336;14.472;2023-08-31T00:40:42;26.10;61.10
63371;DHT22;72561;48.336;14.472;2023-08-31T00:44:05;26.10;61.10
63371;DHT22;72561;48.336;14.472;2023-08-31T00:47:26;26.10;61.10
63371;DHT22;72561;48.336;14.472;2023-08-31T00:51:36;26.10;60.60
63371;DHT22;72561;48.336;14.472;2023-08-31T00:57:11;26.10;60.60
63371;DHT22;72561;48.336;14.472;2023-08-31T01:00:40;26.10;61.10
63371;DHT22;72561;48.336;14.472;2023-08-31T01:04:18;26.00;61.10
63371;DHT22;72561;48.336;14.472;2023-08-31T01:08:12;26.10;60.60
63371;DHT22;72561;48.336;14.472;2023-08-31T01:11:45;26.00;61.20
63371;DHT22;72561;48.336;14.472;2023-08-31T01:15:13;26.10;61.20
63371;DHT22;72561;48.336;14.472;2023-08-31T01:18:36;26.00;61.20
63371;DHT22;72561;48.336;14.472;2023-08-31T01:22:02;26.00;61.20
63371;DHT22;72561;48.336;14.472;2023-08-31T01:28:23;26.00;60.60
63371;DHT22;72561;48.336;14.472;2023-08-31T01:34:28;26.00;60.60
63371;DHT22;72561;48.336;14.472;2023-08-31T01:41:46;26.00;60.70
63371;DHT22;72561;48.336;14.472;2023-08-31T01:47:06;26.00;60.70
63371;DHT22;72561;48.336;14.472;2023-08-31T01:59:29;26.00;60.70
63371;DHT22;72561;48.336;14.472;2023-08-31T02:05:23;26.00;60.70
63371;DHT22;72561;48.336;14.472;2023-08-31T02:11:20;25.90;60.70
63371;DHT22;72561;48.336;14.472;2023-08-31T02:20:58;26.00;60.80
63371;DHT22;72561;48.336;14.472;2023-08-31T02:24:19;25.90;61.40
63371;DHT22;72561;48.336;14.472;2023-08-31T02:27:40;25.90;61.40
63371;DHT22;72561;48.336;14.472;2023-08-31T02:38:53;25.90;60.80
63371;DHT22;72561;48.336;14.472;2023-08-31T02:42:14;25.90;61.40
63371;DHT22;72561;48.336;14.472;2023-08-31T02:47:00;25.90;60.80
63371;DHT22;72561;48.336;14.472;2023-08-31T02:55:47;25.90;61.50
63371;DHT22;72561;48.336;14.472;2023-08-31T03:01:09;25.90;60.90
63371;DHT22;72561;48.336;14.472;2023-08-31T03:04:31;25.90;61.50
63371;DHT22;72561;48.336;14.472;2023-08-31T03:07:52;25.90;61.50
63371;DHT22;72561;48.336;14.472;2023-08-31T03:11:13;25.90;61.50
63371;DHT22;72561;48.336;14.472;2023-08-31T03:14:34;25.90;61.50
63371;DHT22;72561;48.336;14.472;2023-08-31T03:25:38;25.90;61.00
63371;DHT22;72561;48.336;14.472;2023-08-31T03:30:11;25.90;61.00
63371;DHT22;72561;48.336;14.472;2023-08-31T03:33:32;25.90;61.60
63371;DHT22;72561;48.336;14.472;2023-08-31T03:37:37;25.90;61.20
63371;DHT22;72561;48.336;14.472;2023-08-31T03:40:58;25.90;61.70
63371;DHT22;72561;48.336;14.472;2023-08-31T03:44:20;25.90;61.70
63371;DHT22;72561;48.336;14.472;2023-08-31T03:49:34;25.90;61.10
63371;DHT22;72561;48.336;14.472;2023-08-31T03:54:04;25.80;58.30
63371;DHT22;72561;48.336;14.472;2023-08-31T03:57:26;25.70;59.30
63371;DHT22;72561;48.336;14.472;2023-08-31T04:00:49;25.60;59.80
63371;DHT22;72561;48.336;14.472;2023-08-31T04:05:11;25.50;59.60
63371;DHT22;72561;48.336;14.472;2023-08-31T04:08:32;25.50;60.50
63371;DHT22;72561;48.336;14.472;2023-08-31T04:11:53;25.40;60.60
63371;DHT22;72561;48.336;14.472;2023-08-31T04:15:14;25.40;60.70
63371;DHT22;72561;48.336;14.472;2023-08-31T04:18:35;25.40;60.70
63371;DHT22;72561;48.336;14.472;2023-08-31T04:21:57;25.40;60.80
63371;DHT22;72561;48.336;14.472;2023-08-31T04:25:18;25.40;60.80
63371;DHT22;72561;48.336;14.472;2023-08-31T04:28:40;25.40;60.70
63371;DHT22;72561;48.336;14.472;2023-08-31T04:32:01;25.40;60.70
63371;DHT22;72561;48.336;14.472;2023-08-31T04:38:49;25.50;60.30
63371;DHT22;72561;48.336;14.472;2023-08-31T04:42:10;25.50;60.70
63371;DHT22;72561;48.336;14.472;2023-08-31T04:45:31;25.50;60.60
63371;DHT22;72561;48.336;14.472;2023-08-31T04:48:52;25.50;59.30
63371;DHT22;72561;48.336;14.472;2023-08-31T04:56:54;25.50;59.80
63371;DHT22;72561;48.336;14.472;2023-08-31T05:02:55;25.50;60.00
63371;DHT22;72561;48.336;14.472;2023-08-31T05:06:16;25.50;60.60
63371;DHT22;72561;48.336;14.472;2023-08-31T05:09:37;25.50;60.70
63371;DHT22;72561;48.336;14.472;2023-08-31T05:12:58;25.50;60.70
63371;DHT22;72561;48.336;14.472;2023-08-31T05:16:19;25.50;60.80
63371;DHT22;72561;48.336;14.472;2023-08-31T05:20:58;25.50;60.30
63371;DHT22;72561;48.336;14.472;2023-08-31T05:24:19;25.50;60.30
63371;DHT22;72561;48.336;14.472;2023-08-31T05:28:45;25.50;60.10
63371;DHT22;72561;48.336;14.472;2023-08-31T05:32:06;25.50;60.80
63371;DHT22;72561;48.336;14.472;2023-08-31T05:38:51;25.50;60.30
63371;DHT22;72561;48.336;14.472;2023-08-31T05:42:12;25.60;60.90
63371;DHT22;72561;48.336;14.472;2023-08-31T05:45:33;25.60;60.90
63371;DHT22;72561;48.336;14.472;2023-08-31T05:51:34;25.60;60.40
63371;DHT22;72561;48.336;14.472;2023-08-31T05:54:55;25.60;61.00
63371;DHT22;72561;48.336;14.472;2023-08-31T06:02:31;25.60;60.40
63371;DHT22;72561;48.336;14.472;2023-08-31T06:05:52;25.60;61.00
63371;DHT22;72561;48.336;14.472;2023-08-31T06:10:03;25.70;60.50
63371;DHT22;72561;48.336;14.472;2023-08-31T06:14:10;25.60;60.40
63371;DHT22;72561;48.336;14.472;2023-08-31T06:17:31;25.70;61.10
63371;DHT22;72561;48.336;14.472;2023-08-31T06:24:35;25.70;60.60
63371;DHT22;72561;48.336;14.472;2023-08-31T06:27:56;25.70;61.20
63371;DHT22;72561;48.336;14.472;2023-08-31T06:33:54;25.70;60.60
63371;DHT22;72561;48.336;14.472;2023-08-31T06:37:32;25.70;60.70
63371;DHT22;72561;48.336;14.472;2023-08-31T06:40:53;25.70;61.20
63371;DHT22;72561;48.336;14.472;2023-08-31T06:45:39;25.70;60.70
63371;DHT22;72561;48.336;14.472;2023-08-31T06:51:48;25.70;60.70
63371;DHT22;72561;48.336;14.472;2023-08-31T06:57:34;25.70;60.60
63371;DHT22;72561;48.336;14.472;2023-08-31T07:02:31;25.70;60.40
63371;DHT22;72561;48.336;14.472;2023-08-31T07:13:14;25.70;60.30
63371;DHT22;72561;48.336;14.472;2023-08-31T07:16:52;25.70;60.30
63371;DHT22;72561;48.336;14.472;2023-08-31T07:20:13;25.70;60.80
63371;DHT22;72561;48.336;14.472;2023-08-31T07:25:42;25.70;60.40
63371;DHT22;72561;48.336;14.472;2023-08-31T07:31:12;25.70;60.30
63371;DHT22;72561;48.336;14.472;2023-08-31T07:34:33;25.70;60.60
63371;DHT22;72561;48.336;14.472;2023-08-31T07:40:56;25.70;60.10
63371;DHT22;72561;48.336;14.472;2023-08-31T07:47:31;25.70;60.20
63371;DHT22;72561;48.336;14.472;2023-08-31T07:50:56;25.70;60.70
63371;DHT22;72561;48.336;14.472;2023-08-31T07:54:23;25.70;60.70
63371;DHT22;72561;48.336;14.472;2023-08-31T07:59:42;25.80;60.40
63371;DHT22;72561;48.336;14.472;2023-08-31T08:03:07;25.80;60.80
63371;DHT22;72561;48.336;14.472;2023-08-31T08:10:06;25.80;60.40
63371;DHT22;72561;48.336;14.472;2023-08-31T08:13:33;25.80;60.80
63371;DHT22;72561;48.336;14.472;2023-08-31T08:16:56;25.90;60.90
63371;DHT22;72561;48.336;14.472;2023-08-31T08:20:20;25.90;60.90
63371;DHT22;72561;48.336;14.472;2023-08-31T08:23:46;26.00;61.00
63371;DHT22;72561;48.336;14.472;2023-08-31T08:27:55;26.00;60.40
63371;DHT22;72561;48.336;14.472;2023-08-31T08:31:18;26.00;60.90
63371;DHT22;72561;48.336;14.472;2023-08-31T08:34:41;26.00;60.90
63371;DHT22;72561;48.336;14.472;2023-08-31T08:39:14;26.10;60.50
63371;DHT22;72561;48.336;14.472;2023-08-31T08:42:40;26.10;60.90
63371;DHT22;72561;48.336;14.472;2023-08-31T08:46:05;26.10;60.90
63371;DHT22;72561;48.336;14.472;2023-08-31T08:51:23;26.20;60.50
63371;DHT22;72561;48.336;14.472;2023-08-31T08:56:17;26.30;60.50
63371;DHT22;72561;48.336;14.472;2023-08-31T09:00:58;26.30;60.50
63371;DHT22;72561;48.336;14.472;2023-08-31T09:04:21;26.30;60.80
63371;DHT22;72561;48.336;14.472;2023-08-31T09:08:03;26.30;60.80
63371;DHT22;72561;48.336;14.472;2023-08-31T09:13:20;26.40;60.40
63371;DHT22;72561;48.336;14.472;2023-08-31T09:18:26;26.40;60.40
63371;DHT22;72561;48.336;14.472;2023-08-31T09:24:51;26.40;60.30
63371;DHT22;72561;48.336;14.472;2023-08-31T09:28:15;26.50;60.50
63371;DHT22;72561;48.336;14.472;2023-08-31T09:34:39;26.50;60.20
63371;DHT22;72561;48.336;14.472;2023-08-31T09:38:08;26.60;60.30
63371;DHT22;72561;48.336;14.472;2023-08-31T09:44:16;26.60;60.10
63371;DHT22;72561;48.336;14.472;2023-08-31T09:51:13;26.60;60.00
63371;DHT22;72561;48.336;14.472;2023-08-31T09:58:18;26.60;59.60
63371;DHT22;72561;48.336;14.472;2023-08-31T10:04:16;26.70;59.40
63371;DHT22;72561;48.336;14.472;2023-08-31T10:12:24;26.60;59.10
63371;DHT22;72561;48.336;14.472;2023-08-31T10:16:51;26.70;58.90
63371;DHT22;72561;48.336;14.472;2023-08-31T10:20:16;26.70;59.30
63371;DHT22;72561;48.336;14.472;2023-08-31T10:23:45;26.70;59.30
63371;DHT22;72561;48.336;14.472;2023-08-31T10:27:23;26.70;59.40
63371;DHT22;72561;48.336;14.472;2023-08-31T10:35:22;26.70;59.20
63371;DHT22;72561;48.336;14.472;2023-08-31T10:38:47;26.70;59.40
63371;DHT22;72561;48.336;14.472;2023-08-31T10:43:16;26.70;59.00
63371;DHT22;72561;48.336;14.472;2023-08-31T10:47:37;26.60;58.90
63371;DHT22;72561;48.336;14.472;2023-08-31T10:50:59;26.60;59.40
63371;DHT22;72561;48.336;14.472;2023-08-31T10:57:05;26.70;58.90
63371;DHT22;72561;48.336;14.472;2023-08-31T11:00:47;26.60;59.20
63371;DHT22;72561;48.336;14.472;2023-08-31T11:04:13;26.60;59.30
63371;DHT22;72561;48.336;14.472;2023-08-31T11:07:38;26.70;58.10
63371;DHT22;72561;48.336;14.472;2023-08-31T11:11:02;26.60;58.40
63371;DHT22;72561;48.336;14.472;2023-08-31T11:14:26;26.60;58.60
63371;DHT22;72561;48.336;14.472;2023-08-31T11:21:16;26.60;58.50
63371;DHT22;72561;48.336;14.472;2023-08-31T11:24:40;26.60;58.90
63371;DHT22;72561;48.336;14.472;2023-08-31T11:28:09;26.60;58.90
63371;DHT22;72561;48.336;14.472;2023-08-31T11:34:42;26.60;58.50
63371;DHT22;72561;48.336;14.472;2023-08-31T11:38:04;26.70;58.90
63371;DHT22;72561;48.336;14.472;2023-08-31T11:41:32;26.70;59.10
63371;DHT22;72561;48.336;14.472;2023-08-31T11:46:23;26.80;58.60
63371;DHT22;72561;48.336;14.472;2023-08-31T11:49:47;26.80;58.80
63371;DHT22;72561;48.336;14.472;2023-08-31T11:53:10;26.80;58.30
63371;DHT22;72561;48.336;14.472;2023-08-31T11:56:40;26.80;58.00
63371;DHT22;72561;48.336;14.472;2023-08-31T12:00:04;26.80;58.20
63371;DHT22;72561;48.336;14.472;2023-08-31T12:06:58;26.80;58.00
63371;DHT22;72561;48.336;14.472;2023-08-31T12:10:54;26.90;57.90
63371;DHT22;72561;48.336;14.472;2023-08-31T12:14:21;26.80;58.10
63371;DHT22;72561;48.336;14.472;2023-08-31T12:17:48;26.90;57.90
63371;DHT22;72561;48.336;14.472;2023-08-31T12:21:14;26.90;57.50
63371;DHT22;72561;48.336;14.472;2023-08-31T12:24:42;26.90;57.20
63371;DHT22;72561;48.336;14.472;2023-08-31T12:28:08;26.90;57.20
63371;DHT22;72561;48.336;14.472;2023-08-31T12:31:30;26.90;57.30
63371;DHT22;72561;48.336;14.472;2023-08-31T12:35:01;26.90;57.00
63371;DHT22;72561;48.336;14.472;2023-08-31T12:39:15;26.90;56.90
63371;DHT22;72561;48.336;14.472;2023-08-31T12:42:38;26.90;57.30
63371;DHT22;72561;48.336;14.472;2023-08-31T12:46:04;27.00;58.10
63371;DHT22;72561;48.336;14.472;2023-08-31T12:54:20;27.20;57.50
63371;DHT22;72561;48.336;14.472;2023-08-31T12:57:50;27.30;57.80
63371;DHT22;72561;48.336;14.472;2023-08-31T13:01:12;27.40;58.00
63371;DHT22;72561;48.336;14.472;2023-08-31T13:04:36;27.70;58.30
63371;DHT22;72561;48.336;14.472;2023-08-31T13:11:32;28.10;58.20
63371;DHT22;72561;48.336;14.472;2023-08-31T13:15:00;28.30;58.20
63371;DHT22;72561;48.336;14.472;2023-08-31T13:18:23;28.50;58.00
63371;DHT22;72561;48.336;14.472;2023-08-31T13:21:46;28.70;57.80
63371;DHT22;72561;48.336;14.472;2023-08-31T13:25:11;28.80;57.70
63371;DHT22;72561;48.336;14.472;2023-08-31T13:28:43;28.90;57.10
63371;DHT22;72561;48.336;14.472;2023-08-31T13:32:10;29.10;57.40
63371;DHT22;72561;48.336;14.472;2023-08-31T13:35:33;29.30;57.40
63371;DHT22;72561;48.336;14.472;2023-08-31T13:38:56;29.50;57.20
63371;DHT22;72561;48.336;14.472;2023-08-31T13:42:22;29.70;57.10
63371;DHT22;72561;48.336;14.472;2023-08-31T13:49:31;30.00;56.90
63371;DHT22;72561;48.336;14.472;2023-08-31T13:55:30;30.30;57.00
63371;DHT22;72561;48.336;14.472;2023-08-31T13:58:57;30.40;56.70
63371;DHT22;72561;48.336;14.472;2023-08-31T14:02:21;30.60;56.20
63371;DHT22;72561;48.336;14.472;2023-08-31T14:05:50;30.70;55.80
63371;DHT22;72561;48.336;14.472;2023-08-31T14:10:56;30.90;56.10
63371;DHT22;72561;48.336;14.472;2023-08-31T14:14:19;31.00;55.70
63371;DHT22;72561;48.336;14.472;2023-08-31T14:17:43;31.00;55.20
63371;DHT22;72561;48.336;14.472;2023-08-31T14:21:14;31.20;55.20
63371;DHT22;72561;48.336;14.472;2023-08-31T14:24:38;31.30;55.00
63371;DHT22;72561;48.336;14.472;2023-08-31T14:28:05;31.30;54.80
63371;DHT22;72561;48.336;14.472;2023-08-31T14:31:29;31.30;54.60
63371;DHT22;72561;48.336;14.472;2023-08-31T14:34:56;31.40;54.50
63371;DHT22;72561;48.336;14.472;2023-08-31T14:40:55;31.50;54.90
63371;DHT22;72561;48.336;14.472;2023-08-31T14:44:18;31.50;54.30
63371;DHT22;72561;48.336;14.472;2023-08-31T14:47:39;31.60;53.90
63371;DHT22;72561;48.336;14.472;2023-08-31T14:53:37;31.60;54.20
63371;DHT22;72561;48.336;14.472;2023-08-31T14:56:58;31.50;53.00
63371;DHT22;72561;48.336;14.472;2023-08-31T15:00:19;31.40;52.80
63371;DHT22;72561;48.336;14.472;2023-08-31T15:03:40;31.20;52.60
63371;DHT22;72561;48.336;14.472;2023-08-31T15:07:01;31.10;52.60
63371;DHT22;72561;48.336;14.472;2023-08-31T15:11:07;30.80;52.80
63371;DHT22;72561;48.336;14.472;2023-08-31T15:14:30;30.60;52.80
63371;DHT22;72561;48.336;14.472;2023-08-31T15:17:51;30.40;52.90
63371;DHT22;72561;48.336;14.472;2023-08-31T15:21:45;30.20;52.80
63371;DHT22;72561;48.336;14.472;2023-08-31T15:25:06;30.10;53.20
63371;DHT22;72561;48.336;14.472;2023-08-31T15:28:27;29.90;53.40
63371;DHT22;72561;48.336;14.472;2023-08-31T15:31:48;29.70;53.50
63371;DHT22;72561;48.336;14.472;2023-08-31T15:35:09;29.60;53.60
63371;DHT22;72561;48.336;14.472;2023-08-31T15:38:33;29.50;53.70
63371;DHT22;72561;48.336;14.472;2023-08-31T15:41:54;29.30;53.70
63371;DHT22;72561;48.336;14.472;2023-08-31T15:45:15;29.20;53.90
63371;DHT22;72561;48.336;14.472;2023-08-31T15:48:36;29.20;54.10
63371;DHT22;72561;48.336;14.472;2023-08-31T15:51:57;29.10;54.20
63371;DHT22;72561;48.336;14.472;2023-08-31T15:55:20;29.00;54.20
63371;DHT22;72561;48.336;14.472;2023-08-31T16:03:41;28.80;53.40
63371;DHT22;72561;48.336;14.472;2023-08-31T16:07:02;28.70;54.20
63371;DHT22;72561;48.336;14.472;2023-08-31T16:10:24;28.60;54.30
63371;DHT22;72561;48.336;14.472;2023-08-31T16:13:45;28.50;54.40
63371;DHT22;72561;48.336;14.472;2023-08-31T16:17:06;28.40;54.50
63371;DHT22;72561;48.336;14.472;2023-08-31T16:20:28;28.40;54.50
63371;DHT22;72561;48.336;14.472;2023-08-31T16:23:49;28.30;54.50
63371;DHT22;72561;48.336;14.472;2023-08-31T16:27:10;28.20;54.60
63371;DHT22;72561;48.336;14.472;2023-08-31T16:30:31;28.20;54.70
63371;DHT22;72561;48.336;14.472;2023-08-31T16:33:52;28.10;54.90
63371;DHT22;72561;48.336;14.472;2023-08-31T16:37:15;28.10;55.00
63371;DHT22;72561;48.336;14.472;2023-08-31T16:40:36;28.00;55.10
63371;DHT22;72561;48.336;14.472;2023-08-31T16:43:57;28.00;55.10
63371;DHT22;72561;48.336;14.472;2023-08-31T16:47:18;27.90;55.10
63371;DHT22;72561;48.336;14.472;2023-08-31T16:50:39;27.90;55.20
63371;DHT22;72561;48.336;14.472;2023-08-31T16:56:11;27.80;54.50
63371;DHT22;72561;48.336;14.472;2023-08-31T16:59:32;27.80;55.40
63371;DHT22;72561;48.336;14.472;2023-08-31T17:02:53;27.80;55.50
63371;DHT22;72561;48.336;14.472;2023-08-31T17:08:11;27.70;54.70
63371;DHT22;72561;48.336;14.472;2023-08-31T17:11:33;27.70;55.30
63371;DHT22;72561;48.336;14.472;2023-08-31T17:14:54;27.60;55.40
63371;DHT22;72561;48.336;14.472;2023-08-31T17:18:15;27.60;55.40
63371;DHT22;72561;48.336;14.472;2023-08-31T17:21:36;27.50;55.40
63371;DHT22;72561;48.336;14.472;2023-08-31T17:24:59;27.50;55.40
63371;DHT22;72561;48.336;14.472;2023-08-31T17:28:20;27.50;55.50
63371;DHT22;72561;48.336;14.472;2023-08-31T17:35:57;27.40;54.70
63371;DHT22;72561;48.336;14.472;2023-08-31T17:39:18;27.40;55.80
63371;DHT22;72561;48.336;14.472;2023-08-31T17:42:39;27.40;55.10
63371;DHT22;72561;48.336;14.472;2023-08-31T17:46:00;27.30;55.00
63371;DHT22;72561;48.336;14.472;2023-08-31T17:49:21;27.30;55.00
63371;DHT22;72561;48.336;14.472;2023-08-31T17:52:44;27.30;55.20
63371;DHT22;72561;48.336;14.472;2023-08-31T17:56:11;27.20;54.90
63371;DHT22;72561;48.336;14.472;2023-08-31T18:02:10;27.20;54.80
63371;DHT22;72561;48.336;14.472;2023-08-31T18:05:32;27.20;55.70
63371;DHT22;72561;48.336;14.472;2023-08-31T18:08:53;27.20;55.80
63371;DHT22;72561;48.336;14.472;2023-08-31T18:14:20;27.10;54.90
63371;DHT22;72561;48.336;14.472;2023-08-31T18:17:42;27.10;55.70
63371;DHT22;72561;48.336;14.472;2023-08-31T18:21:03;27.10;55.50
63371;DHT22;72561;48.336;14.472;2023-08-31T18:24:24;27.10;55.70
63371;DHT22;72561;48.336;14.472;2023-08-31T18:27:45;27.10;55.80
63371;DHT22;72561;48.336;14.472;2023-08-31T18:31:08;27.10;56.00
63371;DHT22;72561;48.336;14.472;2023-08-31T18:34:29;27.00;56.10
63371;DHT22;72561;48.336;14.472;2023-08-31T18:40:51;27.00;55.40
63371;DHT22;72561;48.336;14.472;2023-08-31T18:44:13;27.00;56.50
63371;DHT22;72561;48.336;14.472;2023-08-31T18:47:34;27.00;56.60
63371;DHT22;72561;48.336;14.472;2023-08-31T18:50:55;27.00;56.80
63371;DHT22;72561;48.336;14.472;2023-08-31T18:54:17;26.90;56.80
63371;DHT22;72561;48.336;14.472;2023-08-31T18:57:39;26.90;56.90
63371;DHT22;72561;48.336;14.472;2023-08-31T19:01:01;26.90;57.20
63371;DHT22;72561;48.336;14.472;2023-08-31T19:04:23;26.90;57.20
63371;DHT22;72561;48.336;14.472;2023-08-31T19:09:32;26.90;56.20
63371;DHT22;72561;48.336;14.472;2023-08-31T19:15:04;26.80;56.30
63371;DHT22;72561;48.336;14.472;2023-08-31T19:18:26;26.90;57.40
63371;DHT22;72561;48.336;14.472;2023-08-31T19:21:47;26.80;57.40
63371;DHT22;72561;48.336;14.472;2023-08-31T19:25:08;26.80;57.50
63371;DHT22;72561;48.336;14.472;2023-08-31T19:28:30;26.80;57.60
63371;DHT22;72561;48.336;14.472;2023-08-31T19:31:52;26.80;57.60
63371;DHT22;72561;48.336;14.472;2023-08-31T19:35:13;26.80;57.60
63371;DHT22;72561;48.336;14.472;2023-08-31T19:38:34;26.80;57.70
63371;DHT22;72561;48.336;14.472;2023-08-31T19:43:26;26.80;56.80
63371;DHT22;72561;48.336;14.472;2023-08-31T19:49:41;26.80;56.80
63371;DHT22;72561;48.336;14.472;2023-08-31T19:53:03;26.80;57.70
63371;DHT22;72561;48.336;14.472;2023-08-31T19:56:24;26.70;57.70
63371;DHT22;72561;48.336;14.472;2023-08-31T19:59:45;26.70;57.70
63371;DHT22;72561;48.336;14.472;2023-08-31T20:03:06;26.70;57.80
63371;DHT22;72561;48.336;14.472;2023-08-31T20:06:28;26.70;57.90
63371;DHT22;72561;48.336;14.472;2023-08-31T20:10:28;26.70;57.10
63371;DHT22;72561;48.336;14.472;2023-08-31T20:13:49;26.70;57.80
63371;DHT22;72561;48.336;14.472;2023-08-31T20:18:53;26.70;56.90
63371;DHT22;72561;48.336;14.472;2023-08-31T20:23:49;26.70;56.90
63371;DHT22;72561;48.336;14.472;2023-08-31T20:27:10;26.60;57.50
63371;DHT22;72561;48.336;14.472;2023-08-31T20:30:31;26.60;57.60
63371;DHT22;72561;48.336;14.472;2023-08-31T20:36:40;26.60;56.90
63371;DHT22;72561;48.336;14.472;2023-08-31T20:40:01;26.60;57.60
63371;DHT22;72561;48.336;14.472;2023-08-31T20:44:42;26.50;56.80
63371;DHT22;72561;48.336;14.472;2023-08-31T20:48:04;26.50;57.60
63371;DHT22;72561;48.336;14.472;2023-08-31T20:51:25;26.50;57.70
63371;DHT22;72561;48.336;14.472;2023-08-31T20:54:48;26.50;57.80
63371;DHT22;72561;48.336;14.472;2023-08-31T21:01:04;26.50;57.00
63371;DHT22;72561;48.336;14.472;2023-08-31T21:04:25;26.50;57.80
63371;DHT22;72561;48.336;14.472;2023-08-31T21:11:03;26.50;57.20
63371;DHT22;72561;48.336;14.472;2023-08-31T21:17:02;26.40;57.10
63371;DHT22;72561;48.336;14.472;2023-08-31T21:20:23;26.40;57.90
63371;DHT22;72561;48.336;14.472;2023-08-31T21:23:44;26.40;57.90
63371;DHT22;72561;48.336;14.472;2023-08-31T21:28:11;26.40;57.20
63371;DHT22;72561;48.336;14.472;2023-08-31T21:31:32;26.40;58.00
63371;DHT22;72561;48.336;14.472;2023-08-31T21:34:53;26.40;58.00
63371;DHT22;72561;48.336;14.472;2023-08-31T21:38:14;26.30;58.00
63371;DHT22;72561;48.336;14.472;2023-08-31T21:41:35;26.30;58.00
63371;DHT22;72561;48.336;14.472;2023-08-31T21:44:58;26.30;58.00
63371;DHT22;72561;48.336;14.472;2023-08-31T21:48:19;26.30;58.00
63371;DHT22;72561;48.336;14.472;2023-08-31T21:51:40;26.30;58.00
63371;DHT22;72561;48.336;14.472;2023-08-31T21:55:01;26.30;58.10
63371;DHT22;72561;48.336;14.472;2023-08-31T21:58:22;26.30;58.10
63371;DHT22;72561;48.336;14.472;2023-08-31T22:01:44;26.30;58.20
63371;DHT22;72561;48.336;14.472;2023-08-31T22:07:29;26.30;57.40
63371;DHT22;72561;48.336;14.472;2023-08-31T22:10:50;26.30;58.20
63371;DHT22;72561;48.336;14.472;2023-08-31T22:14:11;26.30;58.20
63371;DHT22;72561;48.336;14.472;2023-08-31T22:17:33;26.30;58.20
63371;DHT22;72561;48.336;14.472;2023-08-31T22:20:54;26.20;58.10
63371;DHT22;72561;48.336;14.472;2023-08-31T22:26:00;26.20;57.50
63371;DHT22;72561;48.336;14.472;2023-08-31T22:32:05;26.20;57.50
63371;DHT22;72561;48.336;14.472;2023-08-31T22:35:26;26.20;58.20
63371;DHT22;72561;48.336;14.472;2023-08-31T22:38:47;26.20;58.20
63371;DHT22;72561;48.336;14.472;2023-08-31T22:42:09;26.20;58.20
63371;DHT22;72561;48.336;14.472;2023-08-31T22:45:30;26.20;58.30
63371;DHT22;72561;48.336;14.472;2023-08-31T22:48:53;26.20;58.40
63371;DHT22;72561;48.336;14.472;2023-08-31T22:52:14;26.20;58.30
63371;DHT22;72561;48.336;14.472;2023-08-31T22:55:35;26.20;58.40
63371;DHT22;72561;48.336;14.472;2023-08-31T22:59:48;26.20;57.70
63371;DHT22;72561;48.336;14.472;2023-08-31T23:03:09;26.20;58.40
63371;DHT22;72561;48.336;14.472;2023-08-31T23:06:30;26.20;58.30
63371;DHT22;72561;48.336;14.472;2023-08-31T23:09:51;26.20;58.40
63371;DHT22;72561;48.336;14.472;2023-08-31T23:13:57;26.20;57.70
63371;DHT22;72561;48.336;14.472;2023-08-31T23:17:18;26.20;58.40
63371;DHT22;72561;48.336;14.472;2023-08-31T23:20:39;26.20;58.40
63371;DHT22;72561;48.336;14.472;2023-08-31T23:27:07;26.10;57.70
63371;DHT22;72561;48.336;14.472;2023-08-31T23:30:28;26.10;58.30
63371;DHT22;72561;48.336;14.472;2023-08-31T23:33:49;26.10;58.30
63371;DHT22;72561;48.336;14.472;2023-08-31T23:39:18;26.10;57.70
63371;DHT22;72561;48.336;14.472;2023-08-31T23:42:46;26.10;57.80
63371;DHT22;72561;48.336;14.472;2023-08-31T23:46:07;26.10;58.30
63371;DHT22;72561;48.336;14.472;2023-08-31T23:50:59;26.00;57.60
63371;DHT22;72561;48.336;14.472;2023-08-31T23:54:20;26.10;58.50
63371;DHT22;72561;48.336;14.472;2023-08-31T23:57:41;26.10;58.50
